Terminal Aerodrome Forecast
Issued by NWS Cleveland, OH

Home | Current Version | Previous Version | Graphics & Text | Print | Product List | Glossary On
Versions: 1 2 3 4 5 6 7 8 9 10 11 12 13 14 15 16 17 18 19 20 21 22 23 24 25 26
602
FTUS41 KCLE 100537
TAFCLE
TAF
KCLE 100537Z 1006/1112 26012KT 6SM -SN OVC012
      TEMPO 1006/1008 3SM -SN OVC022
     FM100800 26014KT 6SM -SHSN OVC022
     FM101100 26014KT 4SM -SHSN OVC025
     FM101700 27012KT 1 1/2SM -SN OVC018
     FM102200 28012KT 3SM -SHSN OVC025
     FM110500 30014KT 6SM -SHSN BKN028=

USA.gov is the U.S. government's official web portal to all federal, state and local government web resources and services.